createdAt,value
2019-03-17T00:01:00.210Z,3.96
2019-03-17T00:06:08.460Z,4.44
2019-03-17T00:11:16.678Z,4.33
2019-03-17T00:16:36.968Z,3.25
2019-03-17T00:21:38.335Z,3.29
2019-03-17T00:31:42.417Z,8.75
2019-03-17T00:36:31.938Z,5.05
2019-03-17T00:41:52.538Z,4.31
2019-03-17T00:46:39.937Z,4.45
2019-03-17T00:51:48.231Z,3.59
2019-03-17T00:56:55.676Z,2.64
2019-03-17T01:02:16.770Z,6.36
2019-03-17T01:07:16.990Z,2.98
2019-03-17T01:12:18.121Z,6.34
2019-03-17T01:17:18.458Z,4.03
2019-03-17T01:22:05.539Z,4.45
2019-03-17T01:27:26.894Z,4.97
2019-03-17T01:32:14.973Z,3.80
2019-03-17T01:37:37.100Z,5.00
2019-03-17T01:42:25.222Z,6.91
2019-03-17T01:47:33.577Z,4.64
2019-03-17T01:52:53.553Z,3.02
2019-03-17T01:57:54.805Z,5.80
2019-03-17T02:02:55.743Z,7.48
2019-03-17T02:07:56.965Z,2.13
2019-03-17T02:12:57.815Z,1.09
2019-03-17T02:17:46.177Z,1.65
2019-03-17T02:22:54.404Z,2.04
2019-03-17T02:28:02.619Z,2.36
2019-03-17T02:33:11.027Z,3.92
2019-03-17T02:38:18.924Z,5.43
2019-03-17T02:43:39.046Z,3.50
2019-03-17T02:48:40.048Z,3.17
2019-03-17T02:53:28.259Z,5.11
2019-03-17T02:58:35.781Z,6.46
2019-03-17T03:03:43.022Z,4.93
2019-03-17T03:09:03.095Z,6.25
2019-03-17T03:19:07.641Z,5.45
2019-03-17T03:24:08.601Z,10.84
2019-03-17T03:29:09.690Z,7.73
2019-03-17T03:33:57.760Z,5.69
2019-03-17T03:39:06.109Z,3.91
2019-03-17T03:44:13.389Z,2.95
2019-03-17T03:49:20.648Z,3.63
2019-03-17T03:54:41.611Z,2.83
2019-03-17T03:59:29.952Z,4.01
2019-03-17T04:04:50.762Z,2.02
2019-03-17T04:09:52.094Z,1.80
2019-03-17T04:14:39.165Z,3.19
2019-03-17T04:19:49.483Z,3.09
2019-03-17T04:24:56.713Z,7.45
2019-03-17T04:30:04.168Z,7.57
2019-03-17T04:35:11.314Z,6.06
2019-03-17T04:40:19.707Z,9.18
2019-03-17T04:45:26.871Z,6.93
2019-03-17T04:50:48.317Z,7.42
2019-03-17T04:55:35.418Z,4.87
2019-03-17T05:00:56.611Z,6.56
2019-03-17T05:05:43.885Z,7.02
2019-03-17T05:11:04.111Z,7.28
2019-03-17T05:15:52.523Z,4.77
2019-03-17T05:20:59.810Z,5.09
2019-03-17T05:26:08.058Z,3.62
2019-03-17T05:31:15.653Z,3.71
2019-03-17T05:36:24.240Z,5.38
2019-03-17T05:41:44.553Z,7.81
2019-03-17T05:46:44.692Z,8.56
2019-03-17T05:51:44.737Z,9.57
2019-03-17T05:56:45.719Z,7.78
2019-03-17T06:01:47.091Z,4.74
2019-03-17T06:06:35.335Z,6.26
2019-03-17T06:11:56.273Z,4.74
2019-03-17T06:16:56.423Z,5.51
2019-03-17T06:22:00.338Z,6.67
2019-03-17T06:26:57.715Z,4.15
2019-03-17T06:36:46.610Z,4.73
2019-03-17T06:41:54.993Z,6.82
2019-03-17T06:47:14.992Z,6.06
2019-03-17T06:52:03.423Z,5.76
2019-03-17T06:57:23.521Z,6.93
2019-03-17T07:02:23.914Z,6.24
2019-03-17T07:07:24.024Z,8.58
2019-03-17T07:12:11.307Z,6.41
2019-03-17T07:22:26.460Z,4.01
2019-03-17T07:27:36.503Z,5.51
2019-03-17T07:32:24.778Z,4.32
2019-03-17T07:37:56.226Z,4.57
2019-03-17T07:42:33.120Z,6.44
2019-03-17T07:47:53.250Z,4.94
2019-03-17T07:52:53.679Z,3.15
2019-03-17T07:57:53.816Z,5.11
2019-03-17T08:02:40.985Z,6.97
2019-03-17T08:07:49.245Z,4.92
2019-03-17T08:13:09.389Z,4.13
2019-03-17T08:18:10.720Z,6.03
2019-03-17T08:22:59.178Z,3.57
2019-03-17T08:28:19.418Z,3.84
2019-03-17T08:33:06.654Z,7.89
2019-03-17T08:38:21.876Z,6.69
2019-03-17T08:48:25.746Z,3.22
2019-03-17T08:53:46.940Z,7.26
2019-03-17T08:58:35.163Z,8.57
2019-03-17T09:03:42.466Z,6.64
2019-03-17T09:09:02.569Z,3.30
2019-03-17T09:14:02.914Z,4.09
2019-03-17T09:19:02.897Z,4.43
2019-03-17T09:24:16.307Z,6.96
2019-03-17T09:29:04.392Z,9.65
2019-03-17T09:33:52.672Z,5.31
2019-03-17T09:38:59.924Z,5.34
2019-03-17T09:44:20.126Z,4.68
2019-03-17T09:49:20.134Z,3.84
2019-03-17T09:54:21.462Z,3.49
2019-03-17T09:59:09.500Z,8.24
2019-03-17T10:09:34.254Z,5.10
2019-03-17T10:14:22.621Z,6.12
2019-03-17T10:19:29.891Z,7.42
2019-03-17T10:24:37.528Z,6.95
2019-03-17T10:34:49.736Z,2.14
2019-03-17T10:50:17.330Z,5.31
2019-03-17T10:55:18.520Z,5.27
2019-03-17T11:00:05.710Z,6.55
2019-03-17T11:05:26.575Z,5.40
2019-03-17T11:10:14.891Z,3.23
2019-03-17T11:15:22.297Z,5.86
2019-03-17T11:20:29.418Z,3.52
2019-03-17T11:25:50.741Z,4.16
2019-03-17T11:30:50.886Z,5.07
2019-03-17T11:35:51.067Z,4.17
2019-03-17T11:40:39.278Z,5.62
2019-03-17T11:45:59.582Z,3.52
2019-03-17T11:50:46.759Z,5.03
2019-03-17T11:56:08.003Z,6.43
2019-03-17T12:01:08.133Z,4.75
2019-03-17T12:06:08.333Z,6.92
2019-03-17T12:11:08.338Z,6.19
2019-03-17T12:16:09.604Z,4.58
2019-03-17T12:21:10.788Z,6.07
2019-03-17T12:26:11.132Z,7.92
2019-03-17T12:31:11.054Z,4.70
2019-03-17T12:35:59.584Z,3.26
2019-03-17T12:41:07.655Z,4.87
2019-03-17T12:46:27.917Z,6.48
2019-03-17T12:51:28.041Z,4.47
2019-03-17T12:56:15.329Z,6.97
2019-03-17T13:01:36.427Z,4.60
2019-03-17T13:06:26.175Z,5.73
2019-03-17T13:11:24.394Z,3.69
2019-03-17T13:16:44.562Z,7.68
2019-03-17T13:21:45.529Z,6.85
2019-03-17T13:26:46.890Z,5.11
2019-03-17T13:31:47.022Z,7.52
2019-03-17T13:36:34.375Z,8.88
2019-03-17T13:41:54.407Z,6.23
2019-03-17T13:52:00.686Z,5.81
2019-03-17T13:56:48.916Z,4.23
2019-03-17T14:07:13.740Z,3.36
2019-03-17T14:17:17.834Z,5.42
2019-03-17T14:22:19.284Z,1.86
2019-03-17T14:27:07.947Z,4.47
2019-03-17T14:47:37.260Z,3.79
2019-03-17T14:52:37.295Z,5.21
2019-03-17T14:57:38.389Z,3.45
2019-03-17T15:02:26.821Z,5.90
2019-03-17T15:07:35.478Z,2.34
2019-03-17T15:12:55.602Z,3.75
2019-03-17T15:17:43.505Z,3.44
2019-03-17T15:22:50.597Z,3.99
2019-03-17T15:27:58.755Z,3.83
2019-03-17T15:33:19.876Z,1.77
2019-03-17T15:38:20.316Z,1.90
2019-03-17T15:43:08.690Z,3.93
2019-03-17T15:48:30.174Z,3.03
2019-03-17T15:53:30.320Z,3.13
2019-03-17T16:00:25.017Z,5.47
2019-03-17T16:13:46.430Z,2.37
2019-03-17T16:18:35.906Z,5.20
2019-03-17T16:23:53.949Z,3.73
2019-03-17T16:28:54.932Z,3.20
2019-03-17T16:33:55.990Z,2.20
2019-03-17T16:38:44.192Z,2.69
2019-03-17T16:44:04.311Z,6.68
2019-03-17T16:49:05.465Z,4.56
2019-03-17T16:53:52.795Z,3.58
2019-03-17T16:59:12.951Z,3.77
2019-03-17T17:04:13.595Z,4.15
2019-03-17T17:09:13.763Z,4.95
2019-03-17T17:19:04.975Z,3.53
2019-03-17T17:29:28.796Z,4.28
2019-03-17T17:34:30.083Z,3.67
2019-03-17T17:39:30.056Z,4.08
2019-03-17T17:44:31.320Z,7.49
2019-03-17T17:49:32.406Z,6.01
2019-03-17T17:54:32.618Z,4.02
2019-03-17T17:59:33.575Z,11.02
2019-03-17T18:04:21.905Z,5.71
2019-03-17T18:09:30.163Z,7.81
2019-03-17T18:14:51.293Z,9.70
2019-03-17T18:19:39.479Z,6.92
2019-03-17T18:24:47.734Z,7.27
2019-03-17T18:30:08.767Z,8.23
2019-03-17T18:34:56.988Z,10.28
2019-03-17T18:40:05.166Z,9.04
2019-03-17T18:45:12.461Z,13.15
2019-03-17T18:50:21.180Z,9.58
2019-03-17T18:55:27.990Z,13.84
2019-03-17T19:00:48.174Z,10.31
2019-03-17T19:10:40.760Z,12.90
2019-03-17T19:15:48.186Z,14.55
2019-03-17T19:20:56.293Z,15.50
2019-03-17T19:26:04.800Z,12.78
2019-03-17T19:31:24.993Z,19.35
2019-03-17T19:36:12.445Z,13.74
2019-03-17T19:41:33.480Z,11.49
2019-03-17T19:46:34.567Z,14.46
2019-03-17T19:51:23.090Z,16.30
2019-03-17T19:56:30.412Z,14.00
2019-03-17T20:01:38.636Z,18.23
2019-03-17T20:06:45.956Z,18.96
2019-03-17T20:12:07.041Z,16.88
2019-03-17T20:17:07.344Z,22.01
2019-03-17T20:22:07.331Z,19.69
2019-03-17T20:26:55.576Z,18.59
2019-03-17T20:32:03.829Z,17.31
2019-03-17T20:37:24.169Z,13.76
2019-03-17T20:42:12.232Z,17.23
2019-03-17T20:47:32.501Z,14.97
2019-03-17T20:52:19.610Z,20.79
2019-03-17T20:57:27.938Z,22.29
2019-03-17T21:07:39.592Z,16.18
2019-03-17T21:12:47.827Z,18.44
2019-03-17T21:17:55.052Z,21.53
2019-03-17T21:23:20.023Z,16.67
2019-03-17T21:28:20.207Z,18.76
2019-03-17T21:33:07.537Z,10.83
2019-03-17T21:38:14.989Z,14.13
2019-03-17T21:43:22.213Z,13.55
2019-03-17T21:48:29.750Z,15.01
2019-03-17T21:53:49.713Z,13.37
2019-03-17T21:58:38.165Z,12.45
2019-03-17T22:03:59.259Z,13.02
2019-03-17T22:08:46.732Z,13.97
2019-03-17T22:14:12.122Z,13.40
2019-03-17T22:18:54.216Z,10.99
2019-03-17T22:24:28.639Z,10.48
2019-03-17T22:29:05.827Z,12.35
2019-03-17T22:34:26.953Z,12.16
2019-03-17T22:39:14.139Z,13.78
2019-03-17T22:44:24.703Z,11.24
2019-03-17T22:49:29.669Z,13.84
2019-03-17T22:54:50.770Z,13.64
2019-03-17T22:59:51.079Z,16.51
2019-03-17T23:04:52.210Z,18.45
2019-03-17T23:09:52.614Z,17.83
2019-03-17T23:14:39.926Z,14.01
2019-03-17T23:20:00.472Z,12.12
2019-03-17T23:24:47.480Z,19.76
2019-03-17T23:29:54.855Z,14.81
2019-03-17T23:35:14.830Z,18.70
2019-03-17T23:40:03.249Z,15.20
2019-03-17T23:45:10.359Z,14.09
2019-03-17T23:50:18.636Z,14.20
2019-03-17T23:55:26.303Z,22.45
